Time;durP1;ratioP1;P1;durP2;ratioP2;P2;SDS_P1;SDS_P2;PMS_P1;PMS_P2;Temp;Humidity;BMP_temperature;BMP_pressure;BME280_temperature;BME280_humidity;BME280_pressure;Samples;Min_cycle;Max_cycle;Signal;HPM_P1;HPM_P2
2021/09/16 00:00:13;;;;;;;8.93;7.35;;;20.30;81.30;;;;;;5002383;28;20052;-66
2021/09/16 00:02:40;;;;;;;9.88;7.07;;;20.20;81.50;;;;;;5000360;28;20027;-66
2021/09/16 00:05:07;;;;;;;11.38;7.45;;;20.10;81.90;;;;;;5001585;28;21883;-65
2021/09/16 00:07:33;;;;;;;12.18;7.45;;;20.10;81.70;;;;;;5001107;28;20050;-66
2021/09/16 00:09:59;;;;;;;8.35;6.68;;;20.10;81.90;;;;;;5003635;28;20037;-66
2021/09/16 00:12:24;;;;;;;8.50;7.60;;;20.00;82.00;;;;;;5015293;28;20045;-67
2021/09/16 00:14:50;;;;;;;8.27;7.05;;;20.00;82.20;;;;;;5003261;28;20519;-66
2021/09/16 00:17:15;;;;;;;8.07;6.55;;;20.00;82.30;;;;;;5002969;28;20393;-65
2021/09/16 00:19:41;;;;;;;8.88;6.53;;;19.90;82.20;;;;;;5001755;28;20532;-66
2021/09/16 00:22:07;;;;;;;7.95;6.85;;;19.90;82.40;;;;;;5002282;28;22243;-67
2021/09/16 00:24:32;;;;;;;12.23;7.50;;;19.90;82.40;;;;;;5001359;28;20077;-66
2021/09/16 00:26:58;;;;;;;9.35;7.78;;;19.90;82.40;;;;;;5002470;28;20417;-66
2021/09/16 00:29:24;;;;;;;9.00;7.15;;;19.90;82.40;;;;;;5001521;28;20046;-66
2021/09/16 00:31:49;;;;;;;11.35;7.28;;;20.00;82.40;;;;;;5001143;28;20041;-66
2021/09/16 00:34:15;;;;;;;9.88;7.15;;;19.90;82.20;;;;;;5000051;28;20184;-66
2021/09/16 00:36:40;;;;;;;7.45;6.50;;;19.90;82.20;;;;;;5000318;28;20034;-66
2021/09/16 00:39:06;;;;;;;13.30;8.20;;;20.00;82.20;;;;;;5001875;28;20034;-66
2021/09/16 00:41:32;;;;;;;9.73;6.97;;;20.00;82.20;;;;;;4999921;28;20065;-66
2021/09/16 00:43:58;;;;;;;8.88;6.90;;;20.00;82.10;;;;;;5003164;28;20412;-66
2021/09/16 00:46:24;;;;;;;8.27;7.38;;;20.00;82.00;;;;;;4999032;28;20073;-66
2021/09/16 00:48:50;;;;;;;8.55;7.50;;;20.00;81.90;;;;;;5001721;28;20126;-66
2021/09/16 00:51:16;;;;;;;9.40;7.05;;;20.00;81.90;;;;;;5002944;28;20141;-66
2021/09/16 00:53:42;;;;;;;7.70;6.80;;;20.00;81.90;;;;;;4999281;28;20392;-66
2021/09/16 00:56:09;;;;;;;9.10;7.03;;;20.00;82.00;;;;;;5001960;28;20127;-65
2021/09/16 00:58:39;;;;;;;7.50;6.78;;;20.00;82.10;;;;;;4999781;28;20045;-66
2021/09/16 01:01:06;;;;;;;9.02;6.75;;;19.90;82.20;;;;;;4999495;28;20038;-67
2021/09/16 01:03:32;;;;;;;9.38;6.78;;;19.90;82.00;;;;;;5000787;28;20041;-66
2021/09/16 01:05:58;;;;;;;8.70;7.30;;;20.00;82.00;;;;;;5003436;28;20543;-67
2021/09/16 01:08:24;;;;;;;9.05;7.47;;;19.90;81.90;;;;;;5001653;28;20026;-66
2021/09/16 01:10:50;;;;;;;8.75;7.55;;;19.90;82.00;;;;;;4997446;28;20493;-66
2021/09/16 01:13:17;;;;;;;8.43;7.43;;;19.90;82.10;;;;;;4999404;28;20049;-66
2021/09/16 01:15:44;;;;;;;10.88;7.10;;;19.90;82.30;;;;;;5001783;28;20039;-66
2021/09/16 01:18:10;;;;;;;9.20;7.35;;;19.90;82.20;;;;;;4998275;28;20038;-67
2021/09/16 01:20:35;;;;;;;7.65;6.45;;;19.90;82.30;;;;;;4999292;28;20574;-66
2021/09/16 01:23:01;;;;;;;7.65;6.53;;;19.90;82.30;;;;;;5000320;28;20048;-66
2021/09/16 01:25:28;;;;;;;9.85;6.75;;;19.90;82.20;;;;;;5001153;28;20042;-67
2021/09/16 01:27:56;;;;;;;7.70;6.95;;;19.90;82.20;;;;;;5000869;28;20118;-67
2021/09/16 01:30:22;;;;;;;7.60;6.60;;;19.90;82.20;;;;;;5002329;28;20030;-66
2021/09/16 01:32:50;;;;;;;9.88;7.15;;;19.90;82.90;;;;;;4998349;28;20962;-66
2021/09/16 01:35:17;;;;;;;10.50;6.90;;;19.90;81.90;;;;;;4999973;28;20728;-67
2021/09/16 01:37:43;;;;;;;9.30;6.97;;;19.90;81.70;;;;;;5000970;28;20054;-66
2021/09/16 01:40:09;;;;;;;10.10;7.15;;;19.90;82.40;;;;;;4999510;28;20034;-66
2021/09/16 01:42:35;;;;;;;10.50;8.38;;;19.80;81.50;;;;;;4999544;28;20113;-66
2021/09/16 01:45:00;;;;;;;12.32;7.78;;;19.80;81.70;;;;;;5001344;28;20616;-66
2021/09/16 01:47:27;;;;;;;11.40;7.65;;;19.80;81.90;;;;;;4999413;28;20558;-66
2021/09/16 01:49:53;;;;;;;9.35;7.13;;;19.70;81.90;;;;;;4997059;28;20149;-67
2021/09/16 01:52:18;;;;;;;10.27;7.78;;;19.70;81.90;;;;;;5001122;28;20030;-66
2021/09/16 01:54:44;;;;;;;10.18;7.57;;;19.70;82.00;;;;;;4998723;28;20520;-66
2021/09/16 01:57:10;;;;;;;11.88;7.90;;;19.70;82.20;;;;;;5000595;28;20030;-67
2021/09/16 01:59:36;;;;;;;9.13;7.47;;;19.70;82.20;;;;;;5001054;28;20110;-66
2021/09/16 02:02:01;;;;;;;12.05;7.78;;;19.70;82.40;;;;;;5000066;28;20037;-67
2021/09/16 02:04:27;;;;;;;7.10;6.40;;;19.70;82.60;;;;;;5012219;28;20100;-66
2021/09/16 02:06:53;;;;;;;8.93;6.72;;;19.60;82.60;;;;;;4997767;28;20042;-66
2021/09/16 02:09:18;;;;;;;9.15;7.78;;;19.60;82.80;;;;;;4998667;28;20048;-67
2021/09/16 02:11:45;;;;;;;7.65;6.63;;;19.60;82.90;;;;;;5002008;28;20100;-66
2021/09/16 02:14:11;;;;;;;8.10;6.43;;;19.60;82.90;;;;;;5006469;28;20536;-66
2021/09/16 02:16:37;;;;;;;8.15;7.32;;;19.60;83.70;;;;;;4999529;28;20034;-66
2021/09/16 02:19:04;;;;;;;7.20;6.50;;;19.60;82.90;;;;;;5003149;28;20054;-67
2021/09/16 02:21:30;;;;;;;8.15;6.78;;;19.70;82.90;;;;;;4997072;28;20030;-66
2021/09/16 02:23:55;;;;;;;8.85;7.10;;;19.70;82.80;;;;;;5000134;28;20045;-67
2021/09/16 02:26:21;;;;;;;8.90;7.18;;;19.70;82.80;;;;;;4999328;28;20045;-67
2021/09/16 02:28:47;;;;;;;8.68;6.88;;;19.70;82.70;;;;;;4999658;28;20043;-67
2021/09/16 02:31:12;;;;;;;10.63;6.57;;;19.80;82.60;;;;;;4999451;28;20492;-66
2021/09/16 02:33:38;;;;;;;9.38;6.53;;;19.80;82.50;;;;;;4999986;28;20030;-66
2021/09/16 02:36:04;;;;;;;8.50;7.65;;;19.80;82.40;;;;;;4998057;28;20033;-67
2021/09/16 02:38:30;;;;;;;9.80;7.22;;;19.80;82.40;;;;;;4999242;28;20029;-67
2021/09/16 02:40:56;;;;;;;9.77;7.10;;;19.80;82.40;;;;;;5001045;28;20052;-67
2021/09/16 02:43:21;;;;;;;8.10;7.18;;;19.80;82.40;;;;;;5000435;28;20038;-67
2021/09/16 02:45:47;;;;;;;10.68;7.25;;;19.80;82.50;;;;;;5000727;28;20049;-67
2021/09/16 02:48:13;;;;;;;8.45;7.18;;;19.80;82.50;;;;;;4999562;28;20062;-66
2021/09/16 02:50:39;;;;;;;10.85;6.97;;;19.80;82.50;;;;;;4999366;28;20075;-66
2021/09/16 02:53:05;;;;;;;13.52;7.15;;;19.80;82.40;;;;;;4998100;28;20034;-67
2021/09/16 02:55:31;;;;;;;7.78;6.32;;;19.80;82.40;;;;;;4998928;28;20030;-67
2021/09/16 02:57:56;;;;;;;8.45;6.75;;;19.80;82.40;;;;;;5001446;28;20041;-66
2021/09/16 03:00:22;;;;;;;8.55;7.18;;;19.80;82.40;;;;;;4998729;28;20666;-68
2021/09/16 03:02:48;;;;;;;8.85;7.43;;;19.80;82.40;;;;;;4997429;28;20521;-66
2021/09/16 03:05:13;;;;;;;8.15;6.75;;;19.80;82.20;;;;;;4997236;28;20099;-67
2021/09/16 03:07:39;;;;;;;7.55;6.63;;;19.80;83.10;;;;;;4998396;28;20742;-66
2021/09/16 03:10:06;;;;;;;7.68;6.88;;;19.80;82.30;;;;;;4999300;28;20085;-67
2021/09/16 03:12:32;;;;;;;7.28;6.32;;;19.80;82.40;;;;;;4997021;28;20045;-66
2021/09/16 03:14:58;;;;;;;7.35;6.35;;;19.80;82.50;;;;;;5000423;28;20034;-66
2021/09/16 03:17:23;;;;;;;6.72;5.88;;;19.80;82.40;;;;;;4998860;28;20660;-67
2021/09/16 03:19:49;;;;;;;6.68;6.00;;;19.80;82.40;;;;;;4997293;28;20034;-67
2021/09/16 03:22:15;;;;;;;6.75;6.05;;;19.80;82.40;;;;;;5000961;28;20441;-67
2021/09/16 03:24:40;;;;;;;8.52;5.78;;;19.90;82.40;;;;;;4997435;28;20695;-66
2021/09/16 03:27:06;;;;;;;7.80;6.40;;;19.80;82.20;;;;;;4997303;28;20073;-67
2021/09/16 03:29:32;;;;;;;7.75;6.75;;;19.90;82.20;;;;;;4997033;28;20034;-67
2021/09/16 03:31:57;;;;;;;8.50;5.93;;;19.90;82.30;;;;;;5000351;28;20056;-67
2021/09/16 03:34:23;;;;;;;8.88;6.65;;;19.90;82.10;;;;;;4998276;28;20432;-67
2021/09/16 03:36:49;;;;;;;8.80;6.55;;;19.90;82.20;;;;;;4997633;28;20039;-67
2021/09/16 03:39:14;;;;;;;8.43;6.15;;;19.90;82.20;;;;;;4995643;28;20033;-67
2021/09/16 03:41:40;;;;;;;11.77;6.78;;;19.90;82.20;;;;;;4995626;28;20322;-67
2021/09/16 03:44:06;;;;;;;7.63;6.70;;;19.90;82.20;;;;;;4995644;28;20147;-67
2021/09/16 03:46:31;;;;;;;9.00;6.80;;;19.90;82.10;;;;;;4995279;28;20525;-67
2021/09/16 03:48:57;;;;;;;7.10;6.43;;;19.90;82.20;;;;;;4998777;28;20125;-66
2021/09/16 03:51:23;;;;;;;8.05;7.25;;;19.90;82.20;;;;;;5012667;28;20378;-67
2021/09/16 03:53:48;;;;;;;7.95;6.60;;;19.90;82.20;;;;;;4996060;28;20382;-66
2021/09/16 03:56:14;;;;;;;8.77;6.55;;;19.90;82.10;;;;;;4996961;28;20041;-66
2021/09/16 03:58:40;;;;;;;10.38;6.78;;;19.90;82.20;;;;;;4997519;28;20066;-67
2021/09/16 04:01:05;;;;;;;11.65;7.28;;;19.90;82.30;;;;;;4995322;28;20416;-67
2021/09/16 04:03:31;;;;;;;8.27;6.78;;;19.80;82.40;;;;;;5011784;28;20054;-68
2021/09/16 04:05:56;;;;;;;7.90;6.68;;;19.80;82.50;;;;;;4998630;28;20089;-66
2021/09/16 04:08:22;;;;;;;7.70;6.07;;;19.80;82.60;;;;;;4997331;28;20026;-66
2021/09/16 04:10:48;;;;;;;6.80;6.10;;;19.80;82.60;;;;;;4996151;28;20405;-66
2021/09/16 04:13:13;;;;;;;6.88;5.95;;;19.70;82.60;;;;;;4999566;28;20034;-66
2021/09/16 04:15:40;;;;;;;7.75;6.50;;;19.70;82.70;;;;;;5000477;28;20034;-66
2021/09/16 04:18:05;;;;;;;6.95;6.25;;;19.70;82.80;;;;;;5000030;28;20048;-66
2021/09/16 04:20:31;;;;;;;9.35;6.65;;;19.70;82.70;;;;;;5000596;28;20452;-66
2021/09/16 04:22:56;;;;;;;13.75;9.88;;;19.70;82.60;;;;;;5001205;28;20850;-66
2021/09/16 04:25:22;;;;;;;35.00;22.92;;;19.70;82.50;;;;;;4999895;28;20565;-66
2021/09/16 04:27:47;;;;;;;29.52;20.52;;;19.70;82.60;;;;;;5000048;28;20049;-67
2021/09/16 04:30:13;;;;;;;23.42;16.95;;;19.70;82.60;;;;;;4993003;28;20064;-66
2021/09/16 04:32:39;;;;;;;16.08;12.32;;;19.70;82.50;;;;;;5001677;28;20505;-67
2021/09/16 04:35:09;;;;;;;10.02;8.52;;;19.70;82.60;;;;;;5002546;28;20038;-68
2021/09/16 04:37:34;;;;;;;10.50;8.45;;;19.70;82.60;;;;;;5002490;28;20042;-67
2021/09/16 04:40:00;;;;;;;8.23;7.30;;;19.70;82.60;;;;;;4998730;28;20065;-67
2021/09/16 04:42:26;;;;;;;7.18;6.47;;;19.70;82.60;;;;;;4998186;28;20176;-68
2021/09/16 04:44:52;;;;;;;8.65;6.80;;;19.70;82.60;;;;;;5000111;28;20045;-67
2021/09/16 04:47:18;;;;;;;7.75;6.60;;;19.70;82.50;;;;;;5002043;28;20037;-67
2021/09/16 04:49:43;;;;;;;8.95;7.22;;;19.70;82.60;;;;;;5001957;28;20044;-67
2021/09/16 04:52:09;;;;;;;9.32;8.32;;;19.70;82.70;;;;;;5005613;28;20425;-67
2021/09/16 04:54:34;;;;;;;8.60;7.70;;;19.70;82.90;;;;;;5000973;28;20509;-66
2021/09/16 04:57:00;;;;;;;8.57;7.68;;;19.70;82.90;;;;;;5015769;28;20035;-67
2021/09/16 04:59:26;;;;;;;10.82;9.73;;;19.70;82.90;;;;;;5004023;28;20500;-67
2021/09/16 05:01:51;;;;;;;9.77;8.30;;;19.70;82.90;;;;;;5000563;28;20085;-66
2021/09/16 05:04:17;;;;;;;7.80;6.97;;;19.70;82.90;;;;;;5000599;28;20049;-67
2021/09/16 05:06:42;;;;;;;10.90;8.02;;;19.70;83.00;;;;;;4999978;28;22006;-67
2021/09/16 05:09:08;;;;;;;8.65;7.68;;;19.70;82.90;;;;;;5002773;28;20041;-67
2021/09/16 05:11:40;;;;;;;9.63;8.23;;;19.70;83.00;;;;;;5001514;28;20061;-67
2021/09/16 05:14:06;;;;;;;10.45;7.93;;;19.70;83.00;;;;;;5002124;28;20500;-68
2021/09/16 05:16:32;;;;;;;10.52;8.05;;;19.70;82.90;;;;;;5000835;28;20041;-67
2021/09/16 05:18:57;;;;;;;9.23;7.80;;;19.70;83.10;;;;;;5001813;28;20437;-67
2021/09/16 05:21:23;;;;;;;8.63;6.88;;;19.70;83.10;;;;;;5001639;28;20121;-67
2021/09/16 05:23:48;;;;;;;8.63;7.15;;;19.70;83.20;;;;;;5001585;28;20041;-68
2021/09/16 05:26:14;;;;;;;7.38;6.55;;;19.70;83.10;;;;;;5000067;28;20497;-68
2021/09/16 05:28:40;;;;;;;8.95;6.90;;;19.70;83.20;;;;;;5000532;28;20033;-67
2021/09/16 05:31:05;;;;;;;8.20;6.72;;;19.70;83.20;;;;;;5000716;28;20037;-67
2021/09/16 05:33:31;;;;;;;11.45;8.07;;;19.70;83.20;;;;;;5001835;28;20169;-68
2021/09/16 05:35:56;;;;;;;9.18;7.53;;;19.80;83.40;;;;;;5001815;28;20070;-69
2021/09/16 05:38:22;;;;;;;8.30;7.25;;;19.70;83.30;;;;;;5016197;28;20037;-67
2021/09/16 05:40:48;;;;;;;10.70;7.40;;;19.80;83.40;;;;;;5002814;28;20034;-67
2021/09/16 05:43:13;;;;;;;10.52;7.55;;;19.80;83.40;;;;;;5000207;28;20053;-68
2021/09/16 05:45:39;;;;;;;8.60;7.20;;;19.80;83.40;;;;;;5000712;28;20408;-67
2021/09/16 05:48:05;;;;;;;8.90;6.93;;;19.80;83.50;;;;;;5013569;28;20030;-69
2021/09/16 05:50:31;;;;;;;7.68;6.88;;;19.80;84.40;;;;;;5001237;28;20045;-66
2021/09/16 05:52:56;;;;;;;11.00;8.50;;;19.80;83.60;;;;;;5000896;28;20512;-68
2021/09/16 05:55:22;;;;;;;12.35;9.05;;;19.80;83.50;;;;;;5000891;28;20058;-67
2021/09/16 05:57:48;;;;;;;11.93;9.13;;;19.90;83.60;;;;;;4999972;28;20026;-69
2021/09/16 06:00:14;;;;;;;10.88;8.60;;;19.80;83.60;;;;;;5000590;28;20040;-67
2021/09/16 06:02:40;;;;;;;9.63;7.88;;;19.80;83.70;;;;;;5000319;28;20026;-68
2021/09/16 06:05:06;;;;;;;8.88;7.45;;;19.90;83.80;;;;;;5000696;28;20034;-67
2021/09/16 06:07:32;;;;;;;11.15;8.20;;;19.90;83.80;;;;;;5000370;28;20037;-67
2021/09/16 06:09:58;;;;;;;9.60;8.00;;;19.90;83.80;;;;;;4999392;28;20160;-68
2021/09/16 06:12:26;;;;;;;10.63;8.02;;;19.90;83.80;;;;;;4998868;28;20406;-68
2021/09/16 06:14:52;;;;;;;11.95;8.95;;;19.90;83.90;;;;;;4999486;28;20030;-68
2021/09/16 06:17:18;;;;;;;13.13;9.05;;;19.90;84.00;;;;;;4998154;28;20037;-68
2021/09/16 06:19:43;;;;;;;10.68;8.68;;;19.90;84.00;;;;;;4999732;28;20512;-66
2021/09/16 06:22:09;;;;;;;10.10;8.55;;;19.80;83.90;;;;;;4999575;28;20037;-69
2021/09/16 06:24:35;;;;;;;9.50;8.15;;;19.90;84.00;;;;;;5000457;28;20516;-67
2021/09/16 06:27:00;;;;;;;11.52;8.35;;;19.90;84.10;;;;;;4999901;28;20531;-67
2021/09/16 06:29:26;;;;;;;9.30;7.55;;;19.90;84.20;;;;;;5000055;28;20072;-68
2021/09/16 06:31:51;;;;;;;11.30;7.35;;;19.90;84.20;;;;;;4999444;28;20044;-66
2021/09/16 06:34:17;;;;;;;8.98;7.38;;;19.90;84.20;;;;;;5000000;28;20033;-68
2021/09/16 06:36:43;;;;;;;8.82;6.72;;;19.90;84.20;;;;;;5000862;28;20058;-68
2021/09/16 06:39:08;;;;;;;14.88;7.00;;;19.90;84.20;;;;;;5001267;28;20110;-68
2021/09/16 06:41:34;;;;;;;12.82;6.90;;;19.90;84.20;;;;;;5000497;28;20056;-67
2021/09/16 06:44:00;;;;;;;8.60;6.13;;;19.90;84.20;;;;;;5000158;28;20034;-68
2021/09/16 06:46:25;;;;;;;7.28;5.78;;;19.90;84.30;;;;;;4999448;28;20037;-68
2021/09/16 06:48:51;;;;;;;6.82;5.70;;;19.90;84.40;;;;;;5000270;28;20040;-67
2021/09/16 06:51:16;;;;;;;7.13;5.70;;;20.00;84.40;;;;;;5000629;28;20041;-68
2021/09/16 06:53:42;;;;;;;7.47;5.70;;;20.00;84.50;;;;;;4999547;28;20040;-68
2021/09/16 06:56:08;;;;;;;6.97;5.53;;;20.00;84.50;;;;;;5000241;28;20057;-68
2021/09/16 06:58:33;;;;;;;7.07;5.60;;;20.10;84.60;;;;;;5000528;28;20042;-68
2021/09/16 07:00:59;;;;;;;8.43;6.03;;;20.10;84.50;;;;;;4999201;28;20118;-68
2021/09/16 07:03:24;;;;;;;7.60;6.07;;;20.10;84.50;;;;;;4996883;28;20180;-68
2021/09/16 07:05:50;;;;;;;7.38;5.85;;;20.10;84.50;;;;;;4999472;28;20509;-68
2021/09/16 07:08:16;;;;;;;6.47;5.88;;;20.10;84.60;;;;;;5011095;28;20762;-68
2021/09/16 07:10:41;;;;;;;6.78;5.70;;;20.20;84.80;;;;;;4998285;28;20042;-68
2021/09/16 07:13:07;;;;;;;6.45;5.85;;;20.20;84.60;;;;;;4998800;28;20061;-69
2021/09/16 07:15:33;;;;;;;6.63;6.00;;;20.20;84.60;;;;;;4998755;28;20121;-68
2021/09/16 07:17:59;;;;;;;6.80;6.15;;;20.30;84.80;;;;;;4998610;28;20528;-67
2021/09/16 07:20:24;;;;;;;7.10;6.05;;;20.30;84.80;;;;;;4998667;28;20536;-67
2021/09/16 07:22:50;;;;;;;6.72;6.03;;;20.30;84.70;;;;;;4998772;28;22753;-68
2021/09/16 07:25:16;;;;;;;6.78;6.07;;;20.40;84.80;;;;;;5000540;28;20034;-68
2021/09/16 07:27:41;;;;;;;7.40;6.35;;;20.40;85.00;;;;;;5000449;28;20081;-69
2021/09/16 07:30:08;;;;;;;7.47;6.20;;;20.40;85.00;;;;;;4999951;28;20115;-68
2021/09/16 07:32:34;;;;;;;6.90;5.80;;;20.50;85.00;;;;;;4998176;28;20042;-68
2021/09/16 07:34:59;;;;;;;6.90;5.75;;;20.50;85.00;;;;;;5000270;28;20387;-68
2021/09/16 07:37:25;;;;;;;7.15;5.78;;;20.50;85.20;;;;;;5000257;28;20034;-68
2021/09/16 07:39:51;;;;;;;6.80;5.60;;;20.60;85.40;;;;;;5000228;28;20034;-68
2021/09/16 07:42:17;;;;;;;7.22;6.22;;;20.60;85.30;;;;;;4999980;28;20563;-67
2021/09/16 07:44:43;;;;;;;6.20;5.18;;;20.70;85.00;;;;;;4999498;28;20038;-68
2021/09/16 07:47:08;;;;;;;7.13;5.63;;;20.70;84.80;;;;;;4999818;28;20130;-68
2021/09/16 07:49:34;;;;;;;7.00;5.40;;;20.70;84.70;;;;;;5002596;28;20053;-68
2021/09/16 07:52:00;;;;;;;6.07;5.47;;;20.80;84.80;;;;;;5003746;28;20045;-67
2021/09/16 07:54:25;;;;;;;6.10;5.28;;;20.80;84.70;;;;;;5004570;28;20283;-68
2021/09/16 07:56:51;;;;;;;6.45;5.07;;;20.80;84.70;;;;;;5019339;28;20084;-68
2021/09/16 07:59:16;;;;;;;5.45;4.95;;;20.80;84.80;;;;;;5004970;28;20518;-67
2021/09/16 08:01:42;;;;;;;8.00;5.07;;;20.80;84.80;;;;;;5005762;28;20042;-68
2021/09/16 08:04:08;;;;;;;6.88;5.53;;;20.80;84.90;;;;;;5001873;28;20425;-68
2021/09/16 08:06:33;;;;;;;6.60;5.00;;;20.90;85.00;;;;;;5002588;28;20073;-67
2021/09/16 08:08:59;;;;;;;5.70;4.68;;;20.90;85.00;;;;;;5004200;28;20041;-68
2021/09/16 08:11:25;;;;;;;4.85;4.30;;;21.00;85.00;;;;;;5002194;28;20117;-68
2021/09/16 08:13:52;;;;;;;5.25;4.15;;;21.00;84.70;;;;;;5002802;28;20417;-68
2021/09/16 08:16:19;;;;;;;4.70;3.80;;;21.00;84.50;;;;;;5004936;28;20046;-68
2021/09/16 08:18:45;;;;;;;5.60;4.15;;;21.00;84.30;;;;;;5004526;28;20095;-67
2021/09/16 08:21:13;;;;;;;5.30;4.32;;;21.00;84.20;;;;;;5004454;28;20116;-68
2021/09/16 08:23:39;;;;;;;4.10;3.72;;;21.00;84.10;;;;;;5003541;28;20040;-68
2021/09/16 08:26:04;;;;;;;4.32;3.92;;;21.10;84.40;;;;;;5001479;28;20038;-67
2021/09/16 08:28:30;;;;;;;4.05;3.65;;;21.10;84.30;;;;;;5000001;28;20034;-68
2021/09/16 08:30:56;;;;;;;3.97;3.55;;;21.20;84.60;;;;;;5000990;28;20215;-68
2021/09/16 08:33:22;;;;;;;6.32;3.92;;;21.20;84.50;;;;;;5003095;28;20049;-68
2021/09/16 08:35:48;;;;;;;3.92;3.38;;;21.20;84.40;;;;;;5002439;28;20030;-68
2021/09/16 08:38:14;;;;;;;3.55;3.13;;;21.30;84.30;;;;;;5003473;28;20109;-68
2021/09/16 08:40:41;;;;;;;4.40;3.22;;;21.40;84.30;;;;;;5002516;28;20383;-68
2021/09/16 08:43:07;;;;;;;4.57;3.50;;;21.40;84.10;;;;;;5002092;28;20031;-68
2021/09/16 08:45:33;;;;;;;4.90;3.60;;;21.40;83.50;;;;;;5003203;28;20077;-68
2021/09/16 08:47:59;;;;;;;4.68;3.55;;;21.50;83.50;;;;;;5001195;28;20034;-67
2021/09/16 08:50:27;;;;;;;3.47;3.17;;;21.50;83.50;;;;;;5000305;28;20413;-67
2021/09/16 08:52:53;;;;;;;3.60;3.15;;;21.60;83.50;;;;;;5001169;28;20068;-68
2021/09/16 08:55:20;;;;;;;4.43;2.65;;;21.60;83.40;;;;;;5002400;28;20505;-68
2021/09/16 08:57:53;;;;;;;5.32;2.83;;;21.70;83.40;;;;;;5002222;28;20038;-68
2021/09/16 09:00:20;;;;;;;6.22;3.05;;;21.70;83.10;;;;;;4999513;28;20033;-68
2021/09/16 09:02:47;;;;;;;3.35;2.63;;;21.80;82.90;;;;;;5001330;28;20046;-68
2021/09/16 09:05:14;;;;;;;2.67;2.47;;;21.80;82.50;;;;;;5001727;28;20030;-68
2021/09/16 09:07:45;;;;;;;3.47;2.90;;;21.90;82.20;;;;;;5001530;28;20038;-68
2021/09/16 09:10:32;;;;;;;4.95;2.75;;;21.90;81.90;;;;;;5001103;28;20039;-68
2021/09/16 09:12:59;;;;;;;2.70;2.50;;;21.90;82.00;;;;;;5001137;28;20557;-68
2021/09/16 09:15:25;;;;;;;3.35;2.58;;;21.90;81.90;;;;;;5002678;28;20068;-68
2021/09/16 09:18:17;;;;;;;3.10;2.80;;;21.90;82.60;;;;;;5002248;28;20034;-68
2021/09/16 09:20:54;;;;;;;2.80;2.60;;;21.90;81.30;;;;;;5000955;28;20054;-68
2021/09/16 09:23:24;;;;;;;3.97;2.65;;;21.90;81.30;;;;;;5000672;28;20054;-68
2021/09/16 09:25:50;;;;;;;4.18;2.75;;;22.00;81.50;;;;;;5000487;28;20049;-68
2021/09/16 09:28:32;;;;;;;3.03;2.75;;;21.90;81.30;;;;;;5000881;28;20629;-68
2021/09/16 09:30:58;;;;;;;3.13;2.80;;;21.90;81.00;;;;;;4999631;28;20386;-68
2021/09/16 09:33:29;;;;;;;4.38;3.25;;;21.90;81.30;;;;;;4998744;28;20030;-68
2021/09/16 09:35:56;;;;;;;3.63;2.97;;;21.90;81.30;;;;;;5001162;28;20031;-68
2021/09/16 09:38:26;;;;;;;3.45;2.67;;;21.90;81.20;;;;;;5001722;28;20122;-69
2021/09/16 09:40:58;;;;;;;3.05;2.75;;;21.90;81.20;;;;;;5000703;28;20021;-68
2021/09/16 09:43:27;;;;;;;4.47;2.90;;;21.90;81.30;;;;;;5000989;28;20115;-68
2021/09/16 09:46:01;;;;;;;3.38;3.05;;;21.90;81.70;;;;;;5000389;28;20167;-68
2021/09/16 09:48:27;;;;;;;3.40;3.10;;;21.90;82.20;;;;;;4999630;28;20105;-68
2021/09/16 09:50:54;;;;;;;3.60;2.65;;;22.00;81.90;;;;;;5000766;28;20042;-68
2021/09/16 09:53:21;;;;;;;6.38;2.80;;;22.00;81.50;;;;;;5000335;28;20117;-69
2021/09/16 09:55:47;;;;;;;4.75;2.92;;;22.00;81.50;;;;;;5000832;28;20070;-68
2021/09/16 09:58:13;;;;;;;3.67;2.67;;;22.10;81.20;;;;;;5000811;28;20026;-69
2021/09/16 10:00:38;;;;;;;4.30;3.00;;;22.10;81.00;;;;;;5005216;28;20029;-68
2021/09/16 10:03:05;;;;;;;2.97;2.67;;;22.10;81.00;;;;;;5000862;28;20034;-68
2021/09/16 10:05:31;;;;;;;2.45;2.15;;;22.10;81.30;;;;;;5001559;28;20584;-68
2021/09/16 10:08:18;;;;;;;3.28;2.20;;;22.20;81.10;;;;;;5002064;28;20504;-68
2021/09/16 10:10:49;;;;;;;3.13;2.35;;;22.30;80.80;;;;;;5001736;28;20057;-68
2021/09/16 10:13:17;;;;;;;4.00;2.70;;;22.30;80.60;;;;;;4998885;28;20049;-68
2021/09/16 10:15:44;;;;;;;2.60;2.40;;;22.40;80.60;;;;;;4999938;28;20045;-68
2021/09/16 10:18:10;;;;;;;2.42;2.17;;;22.40;80.60;;;;;;5000019;28;20412;-68
2021/09/16 10:20:36;;;;;;;3.10;2.35;;;22.50;80.30;;;;;;5002573;28;20038;-69
2021/09/16 10:23:06;;;;;;;2.80;2.20;;;22.60;80.10;;;;;;4999108;28;20057;-69
2021/09/16 10:25:32;;;;;;;2.20;2.00;;;22.60;79.60;;;;;;5001803;28;20505;-69
2021/09/16 10:27:59;;;;;;;2.45;2.15;;;22.70;79.40;;;;;;4999785;28;20566;-69
2021/09/16 10:30:24;;;;;;;2.30;2.03;;;22.70;80.00;;;;;;5000671;28;20062;-68
2021/09/16 10:33:19;;;;;;;2.95;2.00;;;22.80;78.90;;;;;;4997444;28;20116;-68
2021/09/16 10:36:03;;;;;;;2.70;1.98;;;22.80;78.00;;;;;;5000130;28;20049;-68
2021/09/16 10:38:38;;;;;;;5.55;1.80;;;22.90;77.60;;;;;;5003549;28;20038;-68
2021/09/16 10:41:25;;;;;;;3.70;2.00;;;22.90;77.60;;;;;;4999478;28;20038;-68
2021/09/16 10:44:18;;;;;;;2.80;2.22;;;23.00;76.30;;;;;;5001605;28;20030;-68
2021/09/16 10:46:47;;;;;;;1.85;1.75;;;23.00;76.60;;;;;;5000900;28;20042;-68
2021/09/16 10:49:24;;;;;;;2.75;1.63;;;23.00;76.60;;;;;;5000206;28;20034;-68
2021/09/16 10:51:55;;;;;;;2.65;2.20;;;23.00;75.60;;;;;;5000257;28;20113;-68
2021/09/16 10:54:23;;;;;;;2.05;1.85;;;23.00;75.70;;;;;;5000966;28;20041;-70
2021/09/16 10:57:01;;;;;;;2.13;1.92;;;23.00;75.80;;;;;;5000826;28;20030;-68
2021/09/16 10:59:49;;;;;;;1.67;1.58;;;23.00;75.10;;;;;;4991482;28;20049;-68
2021/09/16 11:02:24;;;;;;;1.80;1.70;;;23.00;75.90;;;;;;4979276;28;20038;-68
2021/09/16 11:04:57;;;;;;;1.20;1.10;;;22.90;76.20;;;;;;4998611;28;20092;-68
2021/09/16 11:07:38;;;;;;;1.75;0.93;;;22.80;76.00;;;;;;4999794;28;20035;-68
2021/09/16 11:10:15;;;;;;;1.40;0.90;;;22.70;75.80;;;;;;4999675;28;20026;-68
2021/09/16 11:12:44;;;;;;;0.70;0.70;;;22.50;75.80;;;;;;4998175;28;20536;-68
2021/09/16 11:15:11;;;;;;;0.55;0.55;;;22.40;76.30;;;;;;4997436;28;20046;-69
2021/09/16 11:17:42;;;;;;;0.68;0.57;;;22.30;77.20;;;;;;5000676;28;20044;-68
2021/09/16 11:20:10;;;;;;;1.05;0.55;;;22.10;78.40;;;;;;5000175;28;20059;-68
2021/09/16 11:22:36;;;;;;;0.30;0.30;;;22.00;78.90;;;;;;5000389;28;20038;-68
2021/09/16 11:25:02;;;;;;;0.65;0.50;;;22.00;79.50;;;;;;5002947;28;20583;-69
2021/09/16 11:27:39;;;;;;;0.63;0.63;;;22.00;79.20;;;;;;5001230;28;20099;-68
2021/09/16 11:30:12;;;;;;;1.30;1.20;;;22.00;79.40;;;;;;5002532;28;20053;-68
2021/09/16 11:32:38;;;;;;;1.05;1.02;;;22.00;80.10;;;;;;5000399;28;20487;-68
2021/09/16 11:35:13;;;;;;;2.97;1.70;;;22.00;80.50;;;;;;5002268;28;20413;-68
2021/09/16 11:37:39;;;;;;;1.70;1.60;;;22.10;80.50;;;;;;5001515;28;20540;-68
2021/09/16 11:40:13;;;;;;;2.40;1.50;;;22.10;80.50;;;;;;5002199;28;20042;-68
2021/09/16 11:42:41;;;;;;;2.33;1.80;;;22.10;80.30;;;;;;5016657;28;20038;-68
2021/09/16 11:45:16;;;;;;;2.15;1.90;;;22.20;80.00;;;;;;5001685;28;20042;-69
2021/09/16 11:47:55;;;;;;;2.55;1.90;;;22.20;79.30;;;;;;5002696;28;20038;-68
2021/09/16 11:50:39;;;;;;;2.22;1.88;;;22.20;79.00;;;;;;5004373;28;20035;-68
2021/09/16 11:53:10;;;;;;;2.63;2.22;;;22.20;79.90;;;;;;4993724;28;20093;-68
2021/09/16 11:55:41;;;;;;;3.22;2.13;;;22.20;79.80;;;;;;4979936;28;20035;-69
2021/09/16 11:58:21;;;;;;;2.53;2.13;;;22.20;80.10;;;;;;4978982;28;20031;-68
2021/09/16 12:00:52;;;;;;;2.50;1.85;;;22.20;80.00;;;;;;4978031;28;20129;-69
2021/09/16 12:03:19;;;;;;;1.98;1.83;;;22.10;80.30;;;;;;4980410;28;20437;-68
2021/09/16 12:05:47;;;;;;;1.73;1.05;;;22.10;80.40;;;;;;4979453;28;20034;-69
2021/09/16 12:08:18;;;;;;;0.82;0.82;;;22.10;80.50;;;;;;4980349;28;20153;-69
2021/09/16 12:10:51;;;;;;;0.85;0.60;;;22.00;80.60;;;;;;4979133;28;20041;-68
2021/09/16 12:13:20;;;;;;;5.28;0.60;;;21.90;81.00;;;;;;4978103;28;20026;-68
2021/09/16 12:15:47;;;;;;;0.82;0.43;;;21.80;81.00;;;;;;4980517;28;20034;-68
2021/09/16 12:18:13;;;;;;;0.40;0.28;;;21.80;80.80;;;;;;4979786;28;20041;-68
2021/09/16 12:20:41;;;;;;;0.90;0.32;;;21.70;81.00;;;;;;4979461;28;20132;-68
2021/09/16 12:23:10;;;;;;;0.20;0.20;;;21.60;80.60;;;;;;4979009;28;20121;-68
2021/09/16 12:25:58;;;;;;;1.27;0.30;;;21.40;80.90;;;;;;4980013;28;20034;-68
2021/09/16 12:28:25;;;;;;;0.93;0.30;;;21.30;82.20;;;;;;4979498;28;20046;-68
2021/09/16 12:30:51;;;;;;;0.22;0.20;;;21.30;81.70;;;;;;4979240;28;20034;-68
2021/09/16 12:33:33;;;;;;;0.40;0.30;;;21.20;81.70;;;;;;4981898;28;20397;-68
2021/09/16 12:36:21;;;;;;;0.20;0.20;;;21.10;82.00;;;;;;4986222;28;20461;-68
2021/09/16 12:38:48;;;;;;;0.13;0.10;;;21.10;82.70;;;;;;5001115;28;20446;-68
2021/09/16 12:41:24;;;;;;;0.45;0.30;;;21.00;81.90;;;;;;4984615;28;20101;-68
2021/09/16 12:44:00;;;;;;;0.22;0.22;;;21.00;82.50;;;;;;4983735;28;20034;-68
2021/09/16 12:46:26;;;;;;;0.90;0.38;;;21.00;82.00;;;;;;4983871;28;20532;-68